アムステルダム/スキポール の空港の天気 - METARとTAF

スキポール空港(アムステルダム) ( EHAM / AMS ) - オランダ アムステルダム
飛行場実況気象(Metar)
観測時間04/21 16:55 CEST (04/21 14:55 UTC)
風向・風速北東 4m/s
視程10km以上
天気現象
なし
気温21℃
湿度35%
気圧1018hPa
METAREHAM 211455Z 05008KT 360V080 CAVOK 21/05 Q1018 NOSIG
過去の天気等 Google飛行場航空写真 Wunderground天気予報

過去48時間のMETAR

飛行場予報(TAF)
発表時間: 4/21 13:20 CEST (4/21 11:20 UTC)
予報対象時間: 21日14時 CEST ~ 22日20時 CEST
風向・風速東北東 4m/s
視程10km以上
なし
22日11時 CEST ~ 22日14時 CEST に徐々に
風向・風速東南東 7m/s
TAF EHAM 211120Z 2112/2218 06008KT CAVOK
BECMG 2209/2212 11014KT